sensor_id;sensor_type;location;lat;lon;timestamp;noise_LAeq;noise_LA_min;noise_LA_max;noise_LA01;noise_LA95
69615;Laerm;56821;52.486;4.680;2023-03-25T00:00:05;63.92;47.74;80.28;;
69615;Laerm;56821;52.486;4.680;2023-03-25T00:00:22;51.37;45.95;64.66;;
69615;Laerm;56821;52.486;4.680;2023-03-25T00:00:33;54.70;46.04;69.13;;
69615;Laerm;56821;52.486;4.680;2023-03-25T00:00:48;47.62;44.06;56.75;;
69615;Laerm;56821;52.486;4.680;2023-03-25T00:00:59;49.84;43.58;66.56;;
69615;Laerm;56821;52.486;4.680;2023-03-25T00:01:18;53.41;45.01;67.49;;
69615;Laerm;56821;52.486;4.680;2023-03-25T00:01:29;58.12;44.74;73.37;;
69615;Laerm;56821;52.486;4.680;2023-03-25T00:01:41;49.56;45.67;58.37;;
69615;Laerm;56821;52.486;4.680;2023-03-25T00:01:52;49.15;45.31;57.39;;
69615;Laerm;56821;52.486;4.680;2023-03-25T00:02:02;50.42;45.55;59.76;;
69615;Laerm;56821;52.486;4.680;2023-03-25T00:02:15;49.55;45.09;61.39;;
69615;Laerm;56821;52.486;4.680;2023-03-25T00:02:25;56.23;45.67;69.44;;
69615;Laerm;56821;52.486;4.680;2023-03-25T00:02:36;49.06;45.71;60.18;;
69615;Laerm;56821;52.486;4.680;2023-03-25T00:02:47;48.46;44.52;55.03;;
69615;Laerm;56821;52.486;4.680;2023-03-25T00:02:58;53.61;45.62;70.13;;
69615;Laerm;56821;52.486;4.680;2023-03-25T00:03:08;56.19;47.23;69.74;;
69615;Laerm;56821;52.486;4.680;2023-03-25T00:03:19;48.45;45.87;56.52;;
69615;Laerm;56821;52.486;4.680;2023-03-25T00:03:30;51.42;45.20;66.09;;
69615;Laerm;56821;52.486;4.680;2023-03-25T00:03:42;56.29;43.59;72.76;;
69615;Laerm;56821;52.486;4.680;2023-03-25T00:03:59;51.99;43.97;68.06;;
69615;Laerm;56821;52.486;4.680;2023-03-25T00:04:10;54.40;45.27;66.85;;
69615;Laerm;56821;52.486;4.680;2023-03-25T00:04:20;51.31;47.54;61.35;;
69615;Laerm;56821;52.486;4.680;2023-03-25T00:04:31;52.47;47.11;67.52;;
69615;Laerm;56821;52.486;4.680;2023-03-25T00:04:44;60.23;46.73;76.48;;
69615;Laerm;56821;52.486;4.680;2023-03-25T00:04:54;68.42;47.06;79.97;;
69615;Laerm;56821;52.486;4.680;2023-03-25T00:05:04;52.19;44.34;66.43;;
69615;Laerm;56821;52.486;4.680;2023-03-25T00:05:15;46.19;44.38;48.62;;
69615;Laerm;56821;52.486;4.680;2023-03-25T00:05:26;46.59;44.28;50.49;;
69615;Laerm;56821;52.486;4.680;2023-03-25T00:05:38;59.61;45.61;74.71;;
69615;Laerm;56821;52.486;4.680;2023-03-25T00:05:48;67.11;49.43;80.75;;
69615;Laerm;56821;52.486;4.680;2023-03-25T00:05:59;52.38;44.56;66.41;;
69615;Laerm;56821;52.486;4.680;2023-03-25T00:06:09;48.08;44.72;55.26;;
69615;Laerm;56821;52.486;4.680;2023-03-25T00:06:21;49.68;46.85;57.82;;
69615;Laerm;56821;52.486;4.680;2023-03-25T00:06:31;60.58;49.02;75.69;;
69615;Laerm;56821;52.486;4.680;2023-03-25T00:06:43;58.76;46.75;81.06;;
69615;Laerm;56821;52.486;4.680;2023-03-25T00:06:53;60.14;46.04;73.56;;
69615;Laerm;56821;52.486;4.680;2023-03-25T00:07:05;62.39;47.70;79.34;;
69615;Laerm;56821;52.486;4.680;2023-03-25T00:07:15;68.30;45.00;88.33;;
69615;Laerm;56821;52.486;4.680;2023-03-25T00:07:27;62.98;44.63;79.38;;
69615;Laerm;56821;52.486;4.680;2023-03-25T00:07:37;62.71;44.68;80.61;;
69615;Laerm;56821;52.486;4.680;2023-03-25T00:07:48;61.21;45.25;77.66;;
69615;Laerm;56821;52.486;4.680;2023-03-25T00:07:59;55.87;42.61;71.08;;
69615;Laerm;56821;52.486;4.680;2023-03-25T00:08:10;52.13;43.21;64.64;;
69615;Laerm;56821;52.486;4.680;2023-03-25T00:08:20;49.71;46.56;63.03;;
69615;Laerm;56821;52.486;4.680;2023-03-25T00:08:31;48.56;45.30;56.72;;
69615;Laerm;56821;52.486;4.680;2023-03-25T00:08:41;50.50;45.03;60.26;;
69615;Laerm;56821;52.486;4.680;2023-03-25T00:08:51;46.62;43.01;54.52;;
69615;Laerm;56821;52.486;4.680;2023-03-25T00:09:02;45.39;43.02;48.72;;
69615;Laerm;56821;52.486;4.680;2023-03-25T00:09:13;51.60;43.39;63.61;;
69615;Laerm;56821;52.486;4.680;2023-03-25T00:09:23;48.06;42.19;61.94;;
69615;Laerm;56821;52.486;4.680;2023-03-25T00:09:34;52.02;42.16;64.99;;
69615;Laerm;56821;52.486;4.680;2023-03-25T00:09:44;49.44;44.89;58.58;;
69615;Laerm;56821;52.486;4.680;2023-03-25T00:09:54;60.75;46.58;76.94;;
69615;Laerm;56821;52.486;4.680;2023-03-25T00:10:05;51.94;45.74;63.61;;
69615;Laerm;56821;52.486;4.680;2023-03-25T00:10:15;54.70;44.73;69.87;;
69615;Laerm;56821;52.486;4.680;2023-03-25T00:10:25;57.99;45.10;71.58;;
69615;Laerm;56821;52.486;4.680;2023-03-25T00:10:35;46.78;44.36;51.17;;
69615;Laerm;56821;52.486;4.680;2023-03-25T00:10:50;49.40;44.64;62.84;;
69615;Laerm;56821;52.486;4.680;2023-03-25T00:11:01;52.27;44.86;65.14;;
69615;Laerm;56821;52.486;4.680;2023-03-25T00:11:13;51.93;47.00;66.15;;
69615;Laerm;56821;52.486;4.680;2023-03-25T00:11:23;58.86;47.66;73.53;;
69615;Laerm;56821;52.486;4.680;2023-03-25T00:11:33;65.35;49.11;77.35;;
69615;Laerm;56821;52.486;4.680;2023-03-25T00:11:43;50.43;46.93;59.61;;
69615;Laerm;56821;52.486;4.680;2023-03-25T00:11:54;49.67;47.07;54.84;;
69615;Laerm;56821;52.486;4.680;2023-03-25T00:12:04;51.50;47.63;55.33;;
69615;Laerm;56821;52.486;4.680;2023-03-25T00:12:14;50.39;46.34;59.41;;
69615;Laerm;56821;52.486;4.680;2023-03-25T00:12:25;64.98;46.80;82.09;;
69615;Laerm;56821;52.486;4.680;2023-03-25T00:12:36;61.03;44.49;75.98;;
69615;Laerm;56821;52.486;4.680;2023-03-25T00:12:47;67.05;44.87;86.30;;
69615;Laerm;56821;52.486;4.680;2023-03-25T00:12:57;63.22;45.96;82.89;;
69615;Laerm;56821;52.486;4.680;2023-03-25T00:13:13;54.06;43.80;69.38;;
69615;Laerm;56821;52.486;4.680;2023-03-25T00:13:24;52.50;44.20;64.47;;
69615;Laerm;56821;52.486;4.680;2023-03-25T00:13:35;56.34;45.48;69.23;;
69615;Laerm;56821;52.486;4.680;2023-03-25T00:13:45;61.71;44.88;76.24;;
69615;Laerm;56821;52.486;4.680;2023-03-25T00:13:57;50.23;44.16;61.61;;
69615;Laerm;56821;52.486;4.680;2023-03-25T00:14:07;62.54;44.66;77.91;;
69615;Laerm;56821;52.486;4.680;2023-03-25T00:14:17;52.21;45.58;66.45;;
69615;Laerm;56821;52.486;4.680;2023-03-25T00:14:28;47.61;45.45;50.41;;
69615;Laerm;56821;52.486;4.680;2023-03-25T00:14:38;47.96;45.58;52.91;;
69615;Laerm;56821;52.486;4.680;2023-03-25T00:14:48;50.19;44.74;59.02;;
69615;Laerm;56821;52.486;4.680;2023-03-25T00:15:08;54.01;43.42;69.26;;
69615;Laerm;56821;52.486;4.680;2023-03-25T00:15:18;48.30;44.47;63.33;;
69615;Laerm;56821;52.486;4.680;2023-03-25T00:15:31;46.84;44.10;51.84;;
69615;Laerm;56821;52.486;4.680;2023-03-25T00:15:44;48.73;43.21;59.34;;
69615;Laerm;56821;52.486;4.680;2023-03-25T00:15:57;46.55;43.31;59.22;;
69615;Laerm;56821;52.486;4.680;2023-03-25T00:16:07;58.76;44.30;75.75;;
69615;Laerm;56821;52.486;4.680;2023-03-25T00:16:19;50.24;43.91;61.68;;
69615;Laerm;56821;52.486;4.680;2023-03-25T00:16:29;67.31;45.29;86.81;;
69615;Laerm;56821;52.486;4.680;2023-03-25T00:16:39;53.29;45.02;68.81;;
69615;Laerm;56821;52.486;4.680;2023-03-25T00:16:50;50.41;46.13;64.17;;
69615;Laerm;56821;52.486;4.680;2023-03-25T00:17:01;54.43;46.40;68.46;;
69615;Laerm;56821;52.486;4.680;2023-03-25T00:17:12;54.96;45.11;70.78;;
69615;Laerm;56821;52.486;4.680;2023-03-25T00:17:23;48.03;44.86;56.20;;
69615;Laerm;56821;52.486;4.680;2023-03-25T00:17:37;51.23;44.58;62.03;;
69615;Laerm;56821;52.486;4.680;2023-03-25T00:17:48;52.47;44.89;64.81;;
69615;Laerm;56821;52.486;4.680;2023-03-25T00:17:59;61.38;44.62;79.37;;
69615;Laerm;56821;52.486;4.680;2023-03-25T00:18:09;58.20;44.81;74.77;;
69615;Laerm;56821;52.486;4.680;2023-03-25T00:18:19;49.43;44.20;57.85;;
69615;Laerm;56821;52.486;4.680;2023-03-25T00:18:30;50.59;47.68;58.22;;
69615;Laerm;56821;52.486;4.680;2023-03-25T00:18:43;51.12;47.38;64.13;;
69615;Laerm;56821;52.486;4.680;2023-03-25T00:18:56;49.16;45.95;56.10;;
69615;Laerm;56821;52.486;4.680;2023-03-25T00:19:08;49.85;45.83;57.61;;
69615;Laerm;56821;52.486;4.680;2023-03-25T00:19:19;48.57;45.83;53.60;;
69615;Laerm;56821;52.486;4.680;2023-03-25T00:19:30;49.91;44.39;62.23;;
69615;Laerm;56821;52.486;4.680;2023-03-25T00:19:41;48.04;45.15;51.66;;
69615;Laerm;56821;52.486;4.680;2023-03-25T00:19:51;58.77;47.62;73.35;;
69615;Laerm;56821;52.486;4.680;2023-03-25T00:20:02;56.01;46.39;73.49;;
69615;Laerm;56821;52.486;4.680;2023-03-25T00:20:19;48.73;44.75;60.10;;
69615;Laerm;56821;52.486;4.680;2023-03-25T00:20:30;56.33;45.86;70.25;;
69615;Laerm;56821;52.486;4.680;2023-03-25T00:20:41;47.34;44.84;51.07;;
69615;Laerm;56821;52.486;4.680;2023-03-25T00:20:54;47.56;43.09;63.27;;
69615;Laerm;56821;52.486;4.680;2023-03-25T00:21:06;51.62;42.66;66.58;;
69615;Laerm;56821;52.486;4.680;2023-03-25T00:21:19;48.72;44.96;55.58;;
69615;Laerm;56821;52.486;4.680;2023-03-25T00:21:30;58.02;45.79;73.52;;
69615;Laerm;56821;52.486;4.680;2023-03-25T00:21:42;56.13;44.86;71.37;;
69615;Laerm;56821;52.486;4.680;2023-03-25T00:21:55;57.72;45.63;70.76;;
69615;Laerm;56821;52.486;4.680;2023-03-25T00:22:05;50.35;46.69;59.47;;
69615;Laerm;56821;52.486;4.680;2023-03-25T00:22:17;55.02;48.30;67.49;;
69615;Laerm;56821;52.486;4.680;2023-03-25T00:22:27;56.25;45.14;75.87;;
69615;Laerm;56821;52.486;4.680;2023-03-25T00:22:37;55.38;45.83;68.07;;
69615;Laerm;56821;52.486;4.680;2023-03-25T00:22:53;68.99;47.60;85.91;;
69615;Laerm;56821;52.486;4.680;2023-03-25T00:23:03;60.17;47.21;77.36;;
69615;Laerm;56821;52.486;4.680;2023-03-25T00:23:17;56.86;46.60;69.69;;
69615;Laerm;56821;52.486;4.680;2023-03-25T00:23:29;57.01;47.52;68.64;;
69615;Laerm;56821;52.486;4.680;2023-03-25T00:23:40;51.73;47.33;65.20;;
69615;Laerm;56821;52.486;4.680;2023-03-25T00:23:50;55.95;45.72;71.26;;
69615;Laerm;56821;52.486;4.680;2023-03-25T00:24:00;58.15;45.05;72.97;;
69615;Laerm;56821;52.486;4.680;2023-03-25T00:24:11;62.42;45.07;78.06;;
69615;Laerm;56821;52.486;4.680;2023-03-25T00:24:21;46.89;43.62;53.21;;
69615;Laerm;56821;52.486;4.680;2023-03-25T00:24:31;50.62;45.18;58.55;;
69615;Laerm;56821;52.486;4.680;2023-03-25T00:24:42;62.59;48.03;78.57;;
69615;Laerm;56821;52.486;4.680;2023-03-25T00:24:52;63.98;46.57;77.06;;
69615;Laerm;56821;52.486;4.680;2023-03-25T00:25:02;50.58;46.96;59.18;;
69615;Laerm;56821;52.486;4.680;2023-03-25T00:25:13;57.87;46.53;71.60;;
69615;Laerm;56821;52.486;4.680;2023-03-25T00:25:28;58.95;47.28;71.74;;
69615;Laerm;56821;52.486;4.680;2023-03-25T00:25:38;54.68;47.00;67.85;;
69615;Laerm;56821;52.486;4.680;2023-03-25T00:25:48;50.34;47.03;59.45;;
69615;Laerm;56821;52.486;4.680;2023-03-25T00:25:59;51.02;47.11;61.09;;
69615;Laerm;56821;52.486;4.680;2023-03-25T00:26:09;48.37;44.92;53.29;;
69615;Laerm;56821;52.486;4.680;2023-03-25T00:26:19;62.45;45.72;78.02;;
69615;Laerm;56821;52.486;4.680;2023-03-25T00:26:29;65.75;48.67;82.23;;
69615;Laerm;56821;52.486;4.680;2023-03-25T00:26:41;61.72;46.24;75.12;;
69615;Laerm;56821;52.486;4.680;2023-03-25T00:26:51;51.48;46.42;65.70;;
69615;Laerm;56821;52.486;4.680;2023-03-25T00:27:03;61.01;46.35;74.84;;
69615;Laerm;56821;52.486;4.680;2023-03-25T00:27:13;61.58;44.88;77.20;;
69615;Laerm;56821;52.486;4.680;2023-03-25T00:27:26;63.16;46.49;82.62;;
69615;Laerm;56821;52.486;4.680;2023-03-25T00:27:36;52.56;46.32;67.75;;
69615;Laerm;56821;52.486;4.680;2023-03-25T00:27:47;65.47;45.82;84.72;;
69615;Laerm;56821;52.486;4.680;2023-03-25T00:27:57;63.63;45.81;76.99;;
69615;Laerm;56821;52.486;4.680;2023-03-25T00:28:08;51.14;45.48;65.81;;
69615;Laerm;56821;52.486;4.680;2023-03-25T00:28:18;49.03;44.50;58.56;;
69615;Laerm;56821;52.486;4.680;2023-03-25T00:28:30;48.83;45.61;56.80;;
69615;Laerm;56821;52.486;4.680;2023-03-25T00:28:40;58.51;46.09;73.08;;
69615;Laerm;56821;52.486;4.680;2023-03-25T00:28:50;50.94;45.69;61.16;;
69615;Laerm;56821;52.486;4.680;2023-03-25T00:29:01;51.44;46.29;64.37;;
69615;Laerm;56821;52.486;4.680;2023-03-25T00:29:11;59.17;44.57;73.98;;
69615;Laerm;56821;52.486;4.680;2023-03-25T00:29:22;54.45;47.05;66.96;;
69615;Laerm;56821;52.486;4.680;2023-03-25T00:29:32;62.23;45.56;78.88;;
69615;Laerm;56821;52.486;4.680;2023-03-25T00:29:43;55.13;43.84;69.93;;
69615;Laerm;56821;52.486;4.680;2023-03-25T00:29:53;54.63;43.11;67.19;;
69615;Laerm;56821;52.486;4.680;2023-03-25T00:30:03;55.60;44.53;71.95;;
69615;Laerm;56821;52.486;4.680;2023-03-25T00:30:14;47.99;45.21;54.99;;
69615;Laerm;56821;52.486;4.680;2023-03-25T00:30:25;48.89;46.71;51.06;;
69615;Laerm;56821;52.486;4.680;2023-03-25T00:30:36;47.96;45.22;51.76;;
69615;Laerm;56821;52.486;4.680;2023-03-25T00:30:46;46.57;43.90;54.67;;
69615;Laerm;56821;52.486;4.680;2023-03-25T00:31:00;47.63;43.71;59.31;;
69615;Laerm;56821;52.486;4.680;2023-03-25T00:31:11;60.34;45.09;74.04;;
69615;Laerm;56821;52.486;4.680;2023-03-25T00:31:22;63.29;45.91;79.62;;
69615;Laerm;56821;52.486;4.680;2023-03-25T00:31:32;65.40;46.25;80.12;;
69615;Laerm;56821;52.486;4.680;2023-03-25T00:31:42;51.35;45.25;64.37;;
69615;Laerm;56821;52.486;4.680;2023-03-25T00:31:53;49.04;44.39;58.35;;
69615;Laerm;56821;52.486;4.680;2023-03-25T00:32:03;52.48;43.70;65.63;;
69615;Laerm;56821;52.486;4.680;2023-03-25T00:32:14;51.51;43.06;65.16;;
69615;Laerm;56821;52.486;4.680;2023-03-25T00:32:24;45.17;42.21;49.93;;
69615;Laerm;56821;52.486;4.680;2023-03-25T00:32:38;47.41;43.18;55.57;;
69615;Laerm;56821;52.486;4.680;2023-03-25T00:32:48;44.61;42.34;46.87;;
69615;Laerm;56821;52.486;4.680;2023-03-25T00:33:01;45.42;42.83;51.44;;
69615;Laerm;56821;52.486;4.680;2023-03-25T00:33:11;61.79;45.01;78.62;;
69615;Laerm;56821;52.486;4.680;2023-03-25T00:33:22;58.85;47.00;74.12;;
69615;Laerm;56821;52.486;4.680;2023-03-25T00:33:32;56.25;44.71;73.02;;
69615;Laerm;56821;52.486;4.680;2023-03-25T00:33:44;48.22;43.21;61.29;;
69615;Laerm;56821;52.486;4.680;2023-03-25T00:33:54;53.85;44.41;70.15;;
69615;Laerm;56821;52.486;4.680;2023-03-25T00:34:07;55.50;44.80;68.85;;
69615;Laerm;56821;52.486;4.680;2023-03-25T00:34:17;48.44;44.54;58.16;;
69615;Laerm;56821;52.486;4.680;2023-03-25T00:34:29;50.31;43.75;68.74;;
69615;Laerm;56821;52.486;4.680;2023-03-25T00:34:39;59.94;45.31;72.88;;
69615;Laerm;56821;52.486;4.680;2023-03-25T00:34:50;51.70;45.26;62.16;;
69615;Laerm;56821;52.486;4.680;2023-03-25T00:35:01;48.64;44.19;62.76;;
69615;Laerm;56821;52.486;4.680;2023-03-25T00:35:11;62.70;46.56;79.59;;
69615;Laerm;56821;52.486;4.680;2023-03-25T00:35:22;50.34;44.90;62.19;;
69615;Laerm;56821;52.486;4.680;2023-03-25T00:35:38;45.66;41.95;57.72;;
69615;Laerm;56821;52.486;4.680;2023-03-25T00:35:53;58.57;42.50;72.97;;
69615;Laerm;56821;52.486;4.680;2023-03-25T00:36:08;46.21;43.10;56.98;;
69615;Laerm;56821;52.486;4.680;2023-03-25T00:36:20;48.12;42.62;59.22;;
69615;Laerm;56821;52.486;4.680;2023-03-25T00:36:30;53.84;42.09;68.25;;
69615;Laerm;56821;52.486;4.680;2023-03-25T00:36:40;46.86;40.85;59.96;;
69615;Laerm;56821;52.486;4.680;2023-03-25T00:36:52;44.41;41.75;48.95;;
69615;Laerm;56821;52.486;4.680;2023-03-25T00:37:02;46.45;41.68;60.12;;
69615;Laerm;56821;52.486;4.680;2023-03-25T00:37:14;53.28;43.71;68.07;;
69615;Laerm;56821;52.486;4.680;2023-03-25T00:37:26;55.08;42.20;71.04;;
69615;Laerm;56821;52.486;4.680;2023-03-25T00:37:37;55.24;42.30;70.22;;
69615;Laerm;56821;52.486;4.680;2023-03-25T00:37:47;54.50;45.17;69.26;;
69615;Laerm;56821;52.486;4.680;2023-03-25T00:38:01;56.38;42.99;71.31;;
69615;Laerm;56821;52.486;4.680;2023-03-25T00:38:12;47.86;43.49;58.48;;
69615;Laerm;56821;52.486;4.680;2023-03-25T00:38:22;49.67;46.33;53.38;;
69615;Laerm;56821;52.486;4.680;2023-03-25T00:38:33;49.38;46.22;60.62;;
69615;Laerm;56821;52.486;4.680;2023-03-25T00:38:47;62.16;44.71;80.26;;
69615;Laerm;56821;52.486;4.680;2023-03-25T00:38:57;49.79;45.87;60.33;;
69615;Laerm;56821;52.486;4.680;2023-03-25T00:39:08;64.05;45.01;81.90;;
69615;Laerm;56821;52.486;4.680;2023-03-25T00:39:18;53.74;45.28;71.14;;
69615;Laerm;56821;52.486;4.680;2023-03-25T00:39:29;51.49;44.67;65.41;;
69615;Laerm;56821;52.486;4.680;2023-03-25T00:39:39;48.58;44.28;58.95;;
69615;Laerm;56821;52.486;4.680;2023-03-25T00:39:49;53.13;46.30;67.16;;
69615;Laerm;56821;52.486;4.680;2023-03-25T00:39:59;52.80;45.26;61.27;;
69615;Laerm;56821;52.486;4.680;2023-03-25T00:40:10;49.10;44.58;65.82;;
69615;Laerm;56821;52.486;4.680;2023-03-25T00:40:20;58.32;45.34;74.76;;
69615;Laerm;56821;52.486;4.680;2023-03-25T00:40:31;52.26;45.82;65.15;;
69615;Laerm;56821;52.486;4.680;2023-03-25T00:40:44;53.78;43.92;68.78;;
69615;Laerm;56821;52.486;4.680;2023-03-25T00:40:55;54.47;42.58;71.74;;
69615;Laerm;56821;52.486;4.680;2023-03-25T00:41:22;46.67;43.52;56.84;;
69615;Laerm;56821;52.486;4.680;2023-03-25T00:41:34;61.82;43.02;78.08;;
69615;Laerm;56821;52.486;4.680;2023-03-25T00:41:46;53.37;45.61;69.52;;
69615;Laerm;56821;52.486;4.680;2023-03-25T00:41:57;55.53;45.03;69.01;;
69615;Laerm;56821;52.486;4.680;2023-03-25T00:42:07;47.31;43.08;62.97;;
69615;Laerm;56821;52.486;4.680;2023-03-25T00:42:20;56.62;41.72;73.39;;
69615;Laerm;56821;52.486;4.680;2023-03-25T00:42:35;57.17;42.92;75.69;;
69615;Laerm;56821;52.486;4.680;2023-03-25T00:42:45;53.98;42.69;67.71;;
69615;Laerm;56821;52.486;4.680;2023-03-25T00:42:59;56.70;43.86;72.85;;
69615;Laerm;56821;52.486;4.680;2023-03-25T00:43:12;48.32;43.97;58.28;;
69615;Laerm;56821;52.486;4.680;2023-03-25T00:43:23;45.95;44.05;48.45;;
69615;Laerm;56821;52.486;4.680;2023-03-25T00:43:33;44.99;42.94;47.45;;
69615;Laerm;56821;52.486;4.680;2023-03-25T00:43:44;45.69;43.80;47.97;;
69615;Laerm;56821;52.486;4.680;2023-03-25T00:43:55;50.25;45.21;59.04;;
69615;Laerm;56821;52.486;4.680;2023-03-25T00:44:05;48.58;45.34;58.24;;
69615;Laerm;56821;52.486;4.680;2023-03-25T00:44:16;47.02;44.64;51.89;;
69615;Laerm;56821;52.486;4.680;2023-03-25T00:44:27;51.79;43.75;63.66;;
69615;Laerm;56821;52.486;4.680;2023-03-25T00:44:37;46.47;42.29;57.02;;
69615;Laerm;56821;52.486;4.680;2023-03-25T00:44:48;47.52;40.72;59.03;;
69615;Laerm;56821;52.486;4.680;2023-03-25T00:44:58;45.82;41.35;60.31;;
69615;Laerm;56821;52.486;4.680;2023-03-25T00:45:08;43.79;41.46;45.89;;
69615;Laerm;56821;52.486;4.680;2023-03-25T00:45:19;48.32;42.44;60.00;;
69615;Laerm;56821;52.486;4.680;2023-03-25T00:45:29;51.67;44.48;64.09;;
69615;Laerm;56821;52.486;4.680;2023-03-25T00:45:39;65.70;45.83;80.68;;
69615;Laerm;56821;52.486;4.680;2023-03-25T00:45:53;52.37;45.29;67.09;;
69615;Laerm;56821;52.486;4.680;2023-03-25T00:46:04;50.10;45.54;62.26;;
69615;Laerm;56821;52.486;4.680;2023-03-25T00:46:14;51.81;44.01;68.66;;
69615;Laerm;56821;52.486;4.680;2023-03-25T00:46:26;65.33;46.93;79.26;;
69615;Laerm;56821;52.486;4.680;2023-03-25T00:46:37;50.45;44.14;61.88;;
69615;Laerm;56821;52.486;4.680;2023-03-25T00:46:47;46.92;44.64;51.40;;
69615;Laerm;56821;52.486;4.680;2023-03-25T00:46:57;66.73;43.64;80.93;;
69615;Laerm;56821;52.486;4.680;2023-03-25T00:47:08;49.42;45.15;60.44;;
69615;Laerm;56821;52.486;4.680;2023-03-25T00:47:20;52.20;45.67;63.05;;
69615;Laerm;56821;52.486;4.680;2023-03-25T00:47:30;52.01;46.24;65.30;;
69615;Laerm;56821;52.486;4.680;2023-03-25T00:47:41;56.70;46.16;73.12;;
69615;Laerm;56821;52.486;4.680;2023-03-25T00:47:52;67.22;47.71;81.67;;
69615;Laerm;56821;52.486;4.680;2023-03-25T00:48:02;67.17;47.00;78.62;;
69615;Laerm;56821;52.486;4.680;2023-03-25T00:48:13;60.96;43.85;82.36;;
69615;Laerm;56821;52.486;4.680;2023-03-25T00:48:23;49.85;44.28;57.22;;
69615;Laerm;56821;52.486;4.680;2023-03-25T00:48:33;52.91;44.84;64.60;;
69615;Laerm;56821;52.486;4.680;2023-03-25T00:48:43;47.71;45.80;49.94;;
69615;Laerm;56821;52.486;4.680;2023-03-25T00:48:54;49.86;45.74;61.03;;
69615;Laerm;56821;52.486;4.680;2023-03-25T00:49:05;49.23;46.56;60.30;;
69615;Laerm;56821;52.486;4.680;2023-03-25T00:49:15;49.59;46.58;57.07;;
69615;Laerm;56821;52.486;4.680;2023-03-25T00:49:26;53.95;45.35;66.11;;
69615;Laerm;56821;52.486;4.680;2023-03-25T00:49:37;48.67;45.28;57.47;;
69615;Laerm;56821;52.486;4.680;2023-03-25T00:49:48;48.06;43.66;63.04;;
69615;Laerm;56821;52.486;4.680;2023-03-25T00:49:58;46.15;44.20;47.88;;
69615;Laerm;56821;52.486;4.680;2023-03-25T00:50:08;55.93;45.36;68.40;;
69615;Laerm;56821;52.486;4.680;2023-03-25T00:50:19;48.66;43.33;58.01;;
69615;Laerm;56821;52.486;4.680;2023-03-25T00:50:30;47.48;43.25;58.00;;
69615;Laerm;56821;52.486;4.680;2023-03-25T00:50:40;73.02;45.00;89.19;;
69615;Laerm;56821;52.486;4.680;2023-03-25T00:50:51;59.91;45.57;76.02;;
69615;Laerm;56821;52.486;4.680;2023-03-25T00:51:01;48.96;44.56;57.90;;
69615;Laerm;56821;52.486;4.680;2023-03-25T00:51:21;58.45;44.66;75.27;;
69615;Laerm;56821;52.486;4.680;2023-03-25T00:51:32;46.37;42.40;55.10;;
69615;Laerm;56821;52.486;4.680;2023-03-25T00:51:42;48.86;42.09;59.07;;
69615;Laerm;56821;52.486;4.680;2023-03-25T00:51:53;59.48;42.82;71.32;;
69615;Laerm;56821;52.486;4.680;2023-03-25T00:52:04;56.22;42.41;69.87;;
69615;Laerm;56821;52.486;4.680;2023-03-25T00:52:15;52.43;41.37;66.81;;
69615;Laerm;56821;52.486;4.680;2023-03-25T00:52:25;47.10;41.90;59.41;;
69615;Laerm;56821;52.486;4.680;2023-03-25T00:52:36;52.73;41.08;71.36;;
69615;Laerm;56821;52.486;4.680;2023-03-25T00:52:46;51.92;41.91;66.57;;
69615;Laerm;56821;52.486;4.680;2023-03-25T00:52:57;48.01;42.58;54.47;;
69615;Laerm;56821;52.486;4.680;2023-03-25T00:53:07;45.98;43.80;48.90;;
69615;Laerm;56821;52.486;4.680;2023-03-25T00:53:17;57.94;42.42;72.21;;
69615;Laerm;56821;52.486;4.680;2023-03-25T00:53:27;60.63;44.13;76.26;;
69615;Laerm;56821;52.486;4.680;2023-03-25T00:53:37;54.25;44.60;70.23;;
69615;Laerm;56821;52.486;4.680;2023-03-25T00:53:51;52.41;44.28;64.69;;
69615;Laerm;56821;52.486;4.680;2023-03-25T00:54:02;46.19;43.83;53.90;;
69615;Laerm;56821;52.486;4.680;2023-03-25T00:54:13;55.36;44.41;71.12;;
69615;Laerm;56821;52.486;4.680;2023-03-25T00:54:23;65.60;43.04;79.92;;
69615;Laerm;56821;52.486;4.680;2023-03-25T00:54:34;56.87;43.60;70.34;;
69615;Laerm;56821;52.486;4.680;2023-03-25T00:54:44;67.96;45.45;81.69;;
69615;Laerm;56821;52.486;4.680;2023-03-25T00:54:54;58.54;45.29;71.19;;
69615;Laerm;56821;52.486;4.680;2023-03-25T00:55:06;57.38;45.80;68.14;;
69615;Laerm;56821;52.486;4.680;2023-03-25T00:55:16;53.70;43.12;67.71;;
69615;Laerm;56821;52.486;4.680;2023-03-25T00:55:27;62.98;43.51;74.85;;
69615;Laerm;56821;52.486;4.680;2023-03-25T00:55:37;60.25;42.46;77.64;;
69615;Laerm;56821;52.486;4.680;2023-03-25T00:55:47;53.24;42.64;66.81;;
69615;Laerm;56821;52.486;4.680;2023-03-25T00:55:58;52.47;43.73;64.99;;
69615;Laerm;56821;52.486;4.680;2023-03-25T00:56:08;50.53;42.38;63.59;;
69615;Laerm;56821;52.486;4.680;2023-03-25T00:56:19;49.14;42.94;61.16;;
69615;Laerm;56821;52.486;4.680;2023-03-25T00:56:29;67.69;46.31;84.21;;
69615;Laerm;56821;52.486;4.680;2023-03-25T00:56:40;51.93;46.58;62.59;;
69615;Laerm;56821;52.486;4.680;2023-03-25T00:56:51;49.39;47.18;54.06;;
69615;Laerm;56821;52.486;4.680;2023-03-25T00:57:01;48.72;45.29;52.67;;
69615;Laerm;56821;52.486;4.680;2023-03-25T00:57:11;46.74;44.12;52.67;;
69615;Laerm;56821;52.486;4.680;2023-03-25T00:57:22;47.05;43.98;56.84;;
69615;Laerm;56821;52.486;4.680;2023-03-25T00:57:32;44.58;41.88;47.55;;
69615;Laerm;56821;52.486;4.680;2023-03-25T00:57:42;52.73;43.01;66.88;;
69615;Laerm;56821;52.486;4.680;2023-03-25T00:57:53;48.20;43.61;57.36;;
69615;Laerm;56821;52.486;4.680;2023-03-25T00:58:03;48.00;45.01;50.76;;
69615;Laerm;56821;52.486;4.680;2023-03-25T00:58:14;47.65;44.74;52.33;;
69615;Laerm;56821;52.486;4.680;2023-03-25T00:58:24;45.72;43.86;53.90;;
69615;Laerm;56821;52.486;4.680;2023-03-25T00:58:35;45.38;43.15;48.47;;
69615;Laerm;56821;52.486;4.680;2023-03-25T00:58:45;51.54;44.32;65.07;;
69615;Laerm;56821;52.486;4.680;2023-03-25T00:58:55;57.94;44.85;72.54;;
69615;Laerm;56821;52.486;4.680;2023-03-25T00:59:06;46.47;41.73;55.39;;
69615;Laerm;56821;52.486;4.680;2023-03-25T00:59:16;47.25;41.23;64.79;;
69615;Laerm;56821;52.486;4.680;2023-03-25T00:59:26;48.14;41.55;61.18;;
69615;Laerm;56821;52.486;4.680;2023-03-25T00:59:36;59.56;42.18;78.45;;
69615;Laerm;56821;52.486;4.680;2023-03-25T00:59:47;59.37;42.35;76.40;;
69615;Laerm;56821;52.486;4.680;2023-03-25T00:59:57;57.81;41.91;73.72;;
69615;Laerm;56821;52.486;4.680;2023-03-25T01:00:09;54.07;42.22;67.47;;
69615;Laerm;56821;52.486;4.680;2023-03-25T01:00:20;52.68;46.71;63.63;;
69615;Laerm;56821;52.486;4.680;2023-03-25T01:00:30;64.80;46.01;80.90;;
69615;Laerm;56821;52.486;4.680;2023-03-25T01:00:40;58.91;46.03;72.47;;
69615;Laerm;56821;52.486;4.680;2023-03-25T01:00:50;59.12;45.50;75.07;;
69615;Laerm;56821;52.486;4.680;2023-03-25T01:01:06;66.77;45.95;80.75;;
69615;Laerm;56821;52.486;4.680;2023-03-25T01:01:18;59.62;46.61;76.51;;
69615;Laerm;56821;52.486;4.680;2023-03-25T01:01:32;73.99;46.01;89.34;;
69615;Laerm;56821;52.486;4.680;2023-03-25T01:01:43;47.26;42.65;55.42;;
69615;Laerm;56821;52.486;4.680;2023-03-25T01:01:55;48.01;42.72;60.97;;
69615;Laerm;56821;52.486;4.680;2023-03-25T01:02:06;46.35;42.18;63.59;;
69615;Laerm;56821;52.486;4.680;2023-03-25T01:02:18;47.36;41.62;62.20;;
69615;Laerm;56821;52.486;4.680;2023-03-25T01:02:30;51.10;41.83;64.78;;